»·PEaware :: N201TH KPDX-KSLE

N201TH :: KPDX-KSLE

FLIGHT INFORMATION

Flight Status: Arrived
Operator: Privately registered:
United States
More flights under this callsign
Pilot: Anonymous 26576 (26576)
Aircraft: CESSNA 172 SKYHAWK
(C172)
More flights by this aircraft type
Origin: KPDX Portland Intl
United States
Destination: KSLE McNary
United States
More flights between these airports :: More routes between these airports
Route: +PTLD1 UBG
File this flight plan on PilotEdge
Remarks:
Altitude:
(Current/Filed)
2,000ft
Speed:
(Current/Filed)
105kts
Departed: 29-Dec-19 08:45 AM
Arrived: 29-Dec-19 09:30 AM
Distance/Time
Traveled:
44nm/0:45
Distance/Time
To Go:
Arrived

Flight Plot

Page will automatically refresh every two minutes.

Flight plan parsing failed; only flown route is shown


Map Options




Map Legend


Flown Route
Filed Route
Departure Airport
Arrival Airport
Navaid (VOR, NDB)
Fix

Horizontal Profiles

Position Reports

Time Latitude Longitude Heading Altitude Ground
Speed
29-Dec-19 08:14 45.587609 -122.584015 210 20ft 0kts
29-Dec-19 08:15 45.587609 -122.584015 210 20ft 0kts
29-Dec-19 08:16 45.587609 -122.584015 210 20ft 0kts
29-Dec-19 08:17 45.587609 -122.584015 210 20ft 0kts
29-Dec-19 08:18 45.587609 -122.584015 210 20ft 0kts
29-Dec-19 08:19 45.587609 -122.584015 210 20ft 0kts
29-Dec-19 08:20 45.587609 -122.584015 210 20ft 0kts
29-Dec-19 08:21 45.587609 -122.584015 210 20ft 0kts
29-Dec-19 08:22 45.587609 -122.584015 210 20ft 0kts
29-Dec-19 08:23 45.587609 -122.584015 210 20ft 0kts
29-Dec-19 08:24 45.587609 -122.584015 210 20ft 0kts
29-Dec-19 08:25 45.587609 -122.584015 210 20ft 0kts
29-Dec-19 08:26 45.587609 -122.584015 210 20ft 0kts
29-Dec-19 08:27 45.587609 -122.584015 210 20ft 0kts
29-Dec-19 08:28 45.587609 -122.584015 210 20ft 0kts
29-Dec-19 08:29 45.587608 -122.584015 210 20ft 0kts
29-Dec-19 08:30 45.587608 -122.584015 210 20ft 0kts
29-Dec-19 08:31 45.587608 -122.584015 210 20ft 0kts
29-Dec-19 08:32 45.587607 -122.584039 295 20ft 0kts
29-Dec-19 08:33 45.588129 -122.582957 21 20ft 2kts
29-Dec-19 08:34 45.589537 -122.585360 297 20ft 16kts
29-Dec-19 08:35 45.592036 -122.591772 289 20ft 18kts
29-Dec-19 08:36 45.593432 -122.595869 292 23ft 1kts
29-Dec-19 08:37 45.593588 -122.596131 346 23ft 0kts
29-Dec-19 08:38 45.593588 -122.596131 346 23ft 0kts
29-Dec-19 08:39 45.593588 -122.596131 346 23ft 0kts
29-Dec-19 08:40 45.593926 -122.596234 16 23ft 0kts
29-Dec-19 08:41 45.593926 -122.596234 16 23ft 0kts
29-Dec-19 08:42 45.593926 -122.596234 16 23ft 0kts
29-Dec-19 08:43 45.593926 -122.596234 16 23ft 0kts
29-Dec-19 08:44 45.593728 -122.592944 119 20ft 54kts
29-Dec-19 08:45 45.584554 -122.564976 118 693ft 86kts
29-Dec-19 08:46 45.574481 -122.534727 117 1522ft 83kts
29-Dec-19 08:47 45.564057 -122.529849 339 2206ft 76kts
29-Dec-19 08:48 45.576781 -122.545931 298 3058ft 62kts
29-Dec-19 08:49 45.565581 -122.561204 177 3750ft 87kts
29-Dec-19 08:50 45.540210 -122.556046 180 4345ft 96kts
29-Dec-19 08:51 45.513017 -122.565499 219 4246ft 104kts
29-Dec-19 08:52 45.497722 -122.600022 243 3698ft 106kts
29-Dec-19 08:53 45.479932 -122.633211 231 3102ft 108kts
29-Dec-19 08:54 45.465842 -122.666846 223 2852ft 91kts
29-Dec-19 08:55 45.449500 -122.693188 247 2907ft 89kts
29-Dec-19 08:56 45.438508 -122.723944 252 3084ft 90kts
29-Dec-19 08:57 45.427350 -122.755335 240 3075ft 93kts
29-Dec-19 08:58 45.416759 -122.786164 250 2934ft 82kts
29-Dec-19 08:59 45.407817 -122.816085 243 2772ft 81kts
29-Dec-19 09:00 45.399352 -122.845221 251 2916ft 81kts
29-Dec-19 09:01 45.387124 -122.872591 236 3046ft 83kts
29-Dec-19 09:02 45.375671 -122.900636 250 3106ft 83kts
29-Dec-19 09:03 45.363510 -122.929104 249 3147ft 84kts
29-Dec-19 09:04 45.344120 -122.932888 155 3142ft 101kts
29-Dec-19 09:05 45.319474 -122.935338 210 3203ft 86kts
29-Dec-19 09:06 45.297229 -122.951165 211 3220ft 91kts
29-Dec-19 09:07 45.274722 -122.969697 214 3131ft 95kts
29-Dec-19 09:08 45.252948 -122.990467 222 3029ft 90kts
29-Dec-19 09:09 45.231675 -123.008244 220 2989ft 81kts
29-Dec-19 09:10 45.213476 -123.024593 215 2897ft 74kts
29-Dec-19 09:11 45.196496 -123.039777 236 2840ft 71kts
29-Dec-19 09:12 45.183799 -123.060180 242 2894ft 66kts
29-Dec-19 09:13 45.168338 -123.076885 215 2867ft 70kts
29-Dec-19 09:15 45.152607 -123.090630 221 2743ft 64kts
29-Dec-19 09:16 45.138794 -123.105848 201 2547ft 68kts
29-Dec-19 09:17 45.120416 -123.111523 188 2357ft 68kts
29-Dec-19 09:18 45.103143 -123.118868 217 2246ft 63kts
29-Dec-19 09:19 45.087544 -123.131037 216 2253ft 63kts
29-Dec-19 09:20 45.070717 -123.139582 176 2375ft 70kts
29-Dec-19 09:21 45.052996 -123.124557 142 2533ft 75kts
29-Dec-19 09:22 45.035842 -123.106972 160 2665ft 73kts
29-Dec-19 09:23 45.017377 -123.093444 136 2904ft 75kts
29-Dec-19 09:24 44.998928 -123.078581 147 2878ft 78kts
29-Dec-19 09:25 44.980881 -123.062033 156 2092ft 77kts
29-Dec-19 09:26 44.963631 -123.047969 146 1264ft 68kts
29-Dec-19 09:27 44.948183 -123.032974 143 530ft 69kts
29-Dec-19 09:28 44.932441 -123.019154 151 503ft 75kts
29-Dec-19 09:29 44.915819 -123.006348 145 203ft 58kts
29-Dec-19 09:30 44.913609 -123.004696 154 200ft 0kts
29-Dec-19 09:31 44.913609 -123.004696 154 200ft 0kts

Navigation Log

Ident Type
Flight plan parsing failed, navigation log unavailable